Terminal Aerodrome Forecast
Issued by NWS

Home | Current Version | Previous Version | Text Only | Print | Product List | Glossary On
Versions: 1 2 3 4 5 6 7 8 9 10 11 12 13
000
FTUS43 KMQT 291100
TAFIWD
TAF
KIWD 291138Z 2912/3012 17007KT 5SM -RA BR OVC025
     FM291400 18008KT P6SM -SHRA OVC010
     FM291800 21006KT P6SM -SHRA BKN030
     FM300400 34005KT 3SM SHRA BR BKN005
      AMD NOT SKED=

USA.gov is the U.S. government's official web portal to all federal, state and local government web resources and services.